createdAt,value
2023-08-29T00:02:47.631Z,100397.25
2023-08-29T00:07:49.380Z,100390.31
2023-08-29T00:12:52.411Z,100393.72
2023-08-29T00:17:54.279Z,100407.44
2023-08-29T00:22:55.996Z,100420.94
2023-08-29T00:27:59.107Z,100363.47
2023-08-29T00:33:01.184Z,100322.41
2023-08-29T00:38:03.332Z,100405.91
2023-08-29T00:43:06.625Z,100404.63
2023-08-29T00:48:09.336Z,100396.81
2023-08-29T00:53:11.927Z,100404.25
2023-08-29T00:58:15.492Z,100394.66
2023-08-29T01:03:17.438Z,100402.13
2023-08-29T01:08:19.319Z,100419.47
2023-08-29T01:13:30.802Z,100428.75
2023-08-29T01:18:33.235Z,100405.47
2023-08-29T01:23:43.970Z,100443.19
2023-08-29T01:28:47.765Z,100446.41
2023-08-29T01:33:49.894Z,100410.53
2023-08-29T01:38:52.125Z,100474.63
2023-08-29T01:43:55.408Z,100470.84
2023-08-29T01:48:58.645Z,100315.44
2023-08-29T01:54:00.469Z,100461.91
2023-08-29T01:59:05.604Z,100310.50
2023-08-29T02:04:07.565Z,100487.09
2023-08-29T02:09:09.286Z,100484.94
2023-08-29T02:14:12.458Z,100482.19
2023-08-29T02:19:14.289Z,100486.66
2023-08-29T02:24:18.758Z,100425.44
2023-08-29T02:29:21.771Z,100467.13
2023-08-29T02:34:23.428Z,100457.34
2023-08-29T02:39:25.132Z,100440.03
2023-08-29T02:44:29.487Z,100374.44
2023-08-29T02:49:31.156Z,100414.69
2023-08-29T02:54:32.800Z,100413.88
2023-08-29T02:59:36.297Z,100406.06
2023-08-29T03:04:38.014Z,100405.00
2023-08-29T03:09:39.677Z,100402.63
2023-08-29T03:14:43.353Z,100401.38
2023-08-29T03:19:45.025Z,100393.34
2023-08-29T03:24:47.265Z,100383.91
2023-08-29T03:29:52.901Z,100377.22
2023-08-29T03:34:54.790Z,100372.41
2023-08-29T03:39:56.563Z,100378.81
2023-08-29T03:44:59.721Z,100382.06
2023-08-29T03:50:01.361Z,100342.75
2023-08-29T03:55:03.053Z,100352.34
2023-08-29T04:00:07.887Z,100338.50
2023-08-29T04:05:16.489Z,100391.69
2023-08-29T04:10:18.393Z,100391.16
2023-08-29T04:15:21.665Z,100386.53
2023-08-29T04:20:23.325Z,100400.97
2023-08-29T04:25:25.424Z,100392.75
2023-08-29T04:30:29.105Z,100392.22
2023-08-29T04:35:30.781Z,100391.06
2023-08-29T04:40:32.491Z,100174.38
2023-08-29T04:45:35.587Z,100396.97
2023-08-29T04:50:37.785Z,100395.72
2023-08-29T04:55:39.455Z,100399.00
2023-08-29T05:00:43.514Z,100398.94
2023-08-29T05:05:47.495Z,100391.22
2023-08-29T05:10:50.475Z,100320.88
2023-08-29T05:15:54.010Z,100403.22
2023-08-29T05:20:56.035Z,100396.63
2023-08-29T05:25:57.917Z,100395.50
2023-08-29T05:31:00.960Z,100398.19
2023-08-29T05:36:02.704Z,100396.72
2023-08-29T05:41:04.678Z,100392.84
2023-08-29T05:46:07.738Z,100403.31
2023-08-29T05:51:09.631Z,100396.25
2023-08-29T05:56:11.290Z,100398.78
2023-08-29T06:01:14.558Z,100398.50
2023-08-29T06:06:16.293Z,100400.91
2023-08-29T06:11:17.933Z,100402.44
2023-08-29T06:16:20.916Z,100406.47
2023-08-29T06:21:22.594Z,100406.16
2023-08-29T06:26:24.742Z,100410.19
2023-08-29T06:31:27.765Z,100404.75
2023-08-29T06:36:29.488Z,100411.22
2023-08-29T06:41:31.204Z,100376.88
2023-08-29T06:46:34.219Z,100399.53
2023-08-29T06:51:36.710Z,100402.69
2023-08-29T06:56:38.467Z,100396.66
2023-08-29T07:01:41.749Z,100394.63
2023-08-29T07:06:43.455Z,100400.78
2023-08-29T07:11:45.098Z,100398.22
2023-08-29T07:17:00.106Z,100395.41
2023-08-29T07:22:23.445Z,100402.97
2023-08-29T07:27:25.919Z,100395.91
2023-08-29T07:32:28.990Z,100396.50
2023-08-29T07:37:30.646Z,100396.41
2023-08-29T07:42:32.295Z,100401.50
2023-08-29T07:47:35.395Z,100398.72
2023-08-29T07:52:38.284Z,100408.03
2023-08-29T07:57:41.276Z,100409.00
2023-08-29T08:02:45.859Z,100381.41
2023-08-29T08:07:47.816Z,100418.88
2023-08-29T08:12:50.133Z,100393.09
2023-08-29T08:17:53.477Z,100403.72
2023-08-29T08:22:55.423Z,100429.16
2023-08-29T08:27:58.976Z,100433.38
2023-08-29T08:33:03.165Z,100395.41
2023-08-29T08:38:05.280Z,100438.91
2023-08-29T08:43:07.529Z,100420.06
2023-08-29T08:48:10.766Z,100443.72
2023-08-29T08:53:15.006Z,100439.09
2023-08-29T08:58:18.210Z,100409.81
2023-08-29T09:03:21.380Z,100449.38
2023-08-29T09:08:23.220Z,100444.59
2023-08-29T09:13:24.955Z,100440.94
2023-08-29T09:18:30.091Z,100446.94
2023-08-29T09:23:38.164Z,100428.31
2023-08-29T09:28:40.842Z,100418.06
2023-08-29T09:33:43.937Z,100432.91
2023-08-29T09:38:45.898Z,100442.16
2023-08-29T09:43:48.680Z,100449.63
2023-08-29T09:48:58.442Z,100439.75
2023-08-29T09:54:01.531Z,100439.50
2023-08-29T09:59:04.366Z,100425.88
2023-08-29T10:04:11.645Z,100431.88
2023-08-29T10:09:14.650Z,100421.28
2023-08-29T10:14:17.680Z,100413.56
2023-08-29T10:19:22.231Z,100420.09
2023-08-29T10:24:25.952Z,100412.25
2023-08-29T10:29:27.814Z,100411.19
2023-08-29T10:34:31.229Z,100407.69
2023-08-29T10:39:32.987Z,100411.22
2023-08-29T10:44:38.808Z,100395.09
2023-08-29T10:49:43.333Z,100387.25
2023-08-29T10:54:45.386Z,100387.03
2023-08-29T10:59:47.305Z,100321.59
2023-08-29T11:04:56.380Z,100353.81
2023-08-29T11:10:15.336Z,100350.59
2023-08-29T11:15:17.082Z,100355.91
2023-08-29T11:20:21.088Z,100364.81
2023-08-29T11:25:22.892Z,100360.38
2023-08-29T11:30:34.805Z,100362.03
2023-08-29T11:35:46.187Z,100358.72
2023-08-29T11:41:04.759Z,100365.38
2023-08-29T11:46:10.958Z,100361.88
2023-08-29T11:51:14.443Z,100358.34
2023-08-29T11:56:16.519Z,100353.56
2023-08-29T12:01:18.261Z,100359.53
2023-08-29T12:06:26.289Z,100348.66
2023-08-29T12:11:41.309Z,100341.69
2023-08-29T12:16:43.211Z,100341.88
2023-08-29T12:21:54.463Z,100327.31
2023-08-29T12:26:56.054Z,100332.25
2023-08-29T12:31:57.728Z,100326.47
2023-08-29T12:37:00.706Z,100317.47
2023-08-29T12:42:02.476Z,100303.38
2023-08-29T12:47:04.728Z,100310.38
2023-08-29T12:52:07.985Z,100303.34
2023-08-29T12:57:09.699Z,100289.31
2023-08-29T13:02:11.366Z,100198.25
2023-08-29T13:07:14.491Z,100272.69
2023-08-29T13:12:16.173Z,100287.44
2023-08-29T13:17:17.902Z,100290.50
2023-08-29T13:22:22.095Z,100272.63
2023-08-29T13:27:25.832Z,100275.34
2023-08-29T13:32:27.539Z,100247.03
2023-08-29T13:37:30.767Z,100278.03
2023-08-29T13:42:32.465Z,100290.72
2023-08-29T13:47:34.154Z,100270.50
2023-08-29T13:52:37.375Z,100288.44
2023-08-29T13:57:39.316Z,100241.66
2023-08-29T14:02:41.010Z,100276.84
2023-08-29T14:07:44.518Z,100276.63
2023-08-29T14:12:46.246Z,100276.69
2023-08-29T14:17:47.950Z,100284.38
2023-08-29T14:22:51.107Z,100280.22
2023-08-29T14:27:52.780Z,100288.47
2023-08-29T14:32:54.466Z,100282.75
2023-08-29T14:37:57.457Z,100279.81
2023-08-29T14:42:59.100Z,100289.91
2023-08-29T14:48:00.911Z,100281.69
2023-08-29T14:53:04.450Z,100282.34
2023-08-29T14:58:06.412Z,100280.03
2023-08-29T15:03:10.266Z,100275.38
2023-08-29T15:08:14.129Z,100273.19
2023-08-29T15:13:15.810Z,100276.78
2023-08-29T15:18:17.816Z,100275.75
2023-08-29T15:23:20.875Z,100270.66
2023-08-29T15:28:22.546Z,100255.78
2023-08-29T15:33:24.189Z,100265.75
2023-08-29T15:38:27.344Z,100273.97
2023-08-29T15:43:31.904Z,100253.38
2023-08-29T15:48:33.800Z,100268.84
2023-08-29T15:53:36.897Z,100262.78
2023-08-29T15:58:38.617Z,100258.13
2023-08-29T16:03:40.443Z,100170.94
2023-08-29T16:08:44.018Z,100250.09
2023-08-29T16:13:45.682Z,100252.09
2023-08-29T16:18:47.421Z,100256.53
2023-08-29T16:23:50.522Z,100256.06
2023-08-29T16:28:52.239Z,100255.94
2023-08-29T16:33:53.889Z,100259.22
2023-08-29T16:38:56.927Z,100248.78
2023-08-29T16:43:58.595Z,100256.00
2023-08-29T16:49:00.321Z,100265.81
2023-08-29T16:54:03.507Z,100258.38
2023-08-29T16:59:05.287Z,100262.03
2023-08-29T17:04:07.157Z,100204.97
2023-08-29T17:09:10.221Z,100252.94
2023-08-29T17:14:11.956Z,100263.63
2023-08-29T17:19:14.174Z,100264.41
2023-08-29T17:24:17.276Z,100272.38
2023-08-29T17:29:18.935Z,100278.94
2023-08-29T17:34:20.670Z,100277.09
2023-08-29T17:39:23.719Z,100270.66
2023-08-29T17:44:25.639Z,100265.84
2023-08-29T17:49:29.259Z,100271.03
2023-08-29T17:54:32.528Z,100267.50
2023-08-29T17:59:34.209Z,100268.06
2023-08-29T18:04:35.912Z,100263.66
2023-08-29T18:09:39.248Z,100273.72
2023-08-29T18:14:40.863Z,100266.03
2023-08-29T18:19:42.521Z,100262.56
2023-08-29T18:24:45.452Z,100266.09
2023-08-29T18:29:47.218Z,100263.84
2023-08-29T18:34:48.963Z,100271.38
2023-08-29T18:39:52.115Z,100229.22
2023-08-29T18:44:53.783Z,100270.44
2023-08-29T18:49:55.674Z,100281.81
2023-08-29T18:54:58.678Z,100287.19
2023-08-29T19:00:00.579Z,100287.94
2023-08-29T19:05:02.252Z,100289.94
2023-08-29T19:10:08.138Z,100290.66
2023-08-29T19:15:10.328Z,100298.78
2023-08-29T19:20:12.334Z,100288.25
2023-08-29T19:25:15.366Z,100301.25
2023-08-29T19:30:17.087Z,100303.66
2023-08-29T19:35:18.750Z,100183.06
2023-08-29T19:40:22.191Z,100309.53
2023-08-29T19:45:24.377Z,100306.28
2023-08-29T19:50:26.064Z,100169.69
2023-08-29T19:55:29.074Z,100305.19
2023-08-29T20:00:30.783Z,100217.00
2023-08-29T20:05:32.435Z,100296.66
2023-08-29T20:10:35.953Z,100303.81
2023-08-29T20:15:40.824Z,100301.16
2023-08-29T20:20:42.513Z,100295.53
2023-08-29T20:25:45.577Z,100283.25
2023-08-29T20:30:47.226Z,100291.41
2023-08-29T20:35:48.876Z,100293.72
2023-08-29T20:40:51.892Z,100295.56
2023-08-29T20:45:53.593Z,100288.09
2023-08-29T20:51:00.548Z,100289.25
2023-08-29T20:56:03.936Z,100250.53
2023-08-29T21:01:05.584Z,100280.78
2023-08-29T21:06:07.358Z,100289.06
2023-08-29T21:11:10.601Z,100295.41
2023-08-29T21:16:12.514Z,100297.38
2023-08-29T21:21:14.267Z,100289.88
2023-08-29T21:26:17.332Z,100293.06
2023-08-29T21:31:18.996Z,100289.56
2023-08-29T21:36:20.718Z,100290.56
2023-08-29T21:41:23.808Z,100280.94
2023-08-29T21:46:25.588Z,100275.25
2023-08-29T21:51:29.322Z,100271.59
2023-08-29T21:56:32.353Z,100276.28
2023-08-29T22:01:34.180Z,100268.63
2023-08-29T22:06:35.895Z,100246.59
2023-08-29T22:11:39.109Z,100264.97
2023-08-29T22:16:40.809Z,100250.69
2023-08-29T22:21:42.721Z,100216.84
2023-08-29T22:26:45.738Z,100252.53
2023-08-29T22:31:47.458Z,100243.72
2023-08-29T22:36:49.174Z,100237.75
2023-08-29T22:41:52.169Z,100185.84
2023-08-29T22:46:53.960Z,100091.63
2023-08-29T22:51:55.573Z,100228.78
2023-08-29T22:56:59.004Z,100196.13
2023-08-29T23:02:00.765Z,100227.47
2023-08-29T23:07:03.802Z,100223.97
2023-08-29T23:12:07.802Z,100223.66
2023-08-29T23:17:09.514Z,100215.34
2023-08-29T23:22:11.341Z,100218.69
2023-08-29T23:27:14.352Z,100214.88
2023-08-29T23:32:16.003Z,100212.69
2023-08-29T23:37:17.693Z,100212.38
2023-08-29T23:42:20.712Z,100220.50
2023-08-29T23:47:22.336Z,100211.53
2023-08-29T23:52:24.024Z,100210.72
2023-08-29T23:57:27.151Z,100209.75
